createdAt,value
2018-04-17T00:00:33.941Z,14.13
2018-04-17T00:01:33.913Z,14.19
2018-04-17T00:02:33.934Z,14.19
2018-04-17T00:03:33.928Z,14.19
2018-04-17T00:04:33.895Z,14.19
2018-04-17T00:05:33.880Z,14.19
2018-04-17T00:06:33.892Z,14.19
2018-04-17T00:07:33.906Z,14.19
2018-04-17T00:08:33.908Z,14.13
2018-04-17T00:09:33.873Z,14.19
2018-04-17T00:10:33.990Z,14.13
2018-04-17T00:11:33.899Z,14.13
2018-04-17T00:12:34.038Z,14.06
2018-04-17T00:13:33.889Z,14.06
2018-04-17T00:14:33.884Z,14.06
2018-04-17T00:15:33.942Z,14
2018-04-17T00:16:33.867Z,14.06
2018-04-17T00:17:33.875Z,14.06
2018-04-17T00:18:33.988Z,14
2018-04-17T00:19:33.889Z,14
2018-04-17T00:20:33.847Z,14.06
2018-04-17T00:21:33.927Z,14.06
2018-04-17T00:22:33.894Z,14
2018-04-17T00:23:33.917Z,13.94
2018-04-17T00:24:33.921Z,13.94
2018-04-17T00:25:33.866Z,13.94
2018-04-17T00:26:33.866Z,13.94
2018-04-17T00:27:33.881Z,13.94
2018-04-17T00:28:33.890Z,13.94
2018-04-17T00:29:33.878Z,13.94
2018-04-17T00:30:33.882Z,13.94
2018-04-17T00:31:33.843Z,13.94
2018-04-17T00:32:33.841Z,13.94
2018-04-17T00:33:33.845Z,13.94
2018-04-17T00:34:33.884Z,13.88
2018-04-17T00:35:33.851Z,13.94
2018-04-17T00:36:33.830Z,13.88
2018-04-17T00:37:33.837Z,13.88
2018-04-17T00:38:33.828Z,13.94
2018-04-17T00:39:33.863Z,13.88
2018-04-17T00:40:33.903Z,13.88
2018-04-17T00:41:33.845Z,13.94
2018-04-17T00:42:33.838Z,13.81
2018-04-17T00:43:33.827Z,13.88
2018-04-17T00:44:33.900Z,13.81
2018-04-17T00:45:33.929Z,13.81
2018-04-17T00:46:33.825Z,13.81
2018-04-17T00:47:33.839Z,13.75
2018-04-17T00:48:33.835Z,13.69
2018-04-17T00:49:33.884Z,13.62
2018-04-17T00:50:33.819Z,13.69
2018-04-17T00:51:33.854Z,13.62
2018-04-17T00:52:33.830Z,13.62
2018-04-17T00:53:33.866Z,13.62
2018-04-17T00:54:33.847Z,13.62
2018-04-17T00:55:33.839Z,13.62
2018-04-17T00:56:33.814Z,13.62
2018-04-17T00:57:33.885Z,13.62
2018-04-17T00:58:33.820Z,13.62
2018-04-17T00:59:33.826Z,13.62
2018-04-17T01:00:33.801Z,13.62
2018-04-17T01:01:33.826Z,13.56
2018-04-17T01:02:33.836Z,13.62
2018-04-17T01:03:33.824Z,13.56
2018-04-17T01:04:33.832Z,13.5
2018-04-17T01:05:33.809Z,13.5
2018-04-17T01:06:33.821Z,13.44
2018-04-17T01:07:33.827Z,13.44
2018-04-17T01:08:33.818Z,13.44
2018-04-17T01:09:33.835Z,13.38
2018-04-17T01:10:33.784Z,13.38
2018-04-17T01:11:33.787Z,13.31
2018-04-17T01:12:33.792Z,13.31
2018-04-17T01:13:33.794Z,13.25
2018-04-17T01:14:33.802Z,13.25
2018-04-17T01:15:33.806Z,13.25
2018-04-17T01:16:33.847Z,13.19
2018-04-17T01:17:33.801Z,13.19
2018-04-17T01:18:33.802Z,13.19
2018-04-17T01:19:33.792Z,13.19
2018-04-17T01:20:33.779Z,13.19
2018-04-17T01:21:33.918Z,13.06
2018-04-17T01:22:33.855Z,13.06
2018-04-17T01:23:33.800Z,13.06
2018-04-17T01:24:33.784Z,13.06
2018-04-17T01:25:33.774Z,13.06
2018-04-17T01:26:33.800Z,13.06
2018-04-17T01:27:33.763Z,13.06
2018-04-17T01:28:33.765Z,13
2018-04-17T01:29:33.792Z,13
2018-04-17T01:30:33.759Z,13
2018-04-17T01:31:33.854Z,13
2018-04-17T01:32:33.765Z,13
2018-04-17T01:33:33.797Z,13
2018-04-17T01:34:33.758Z,12.94
2018-04-17T01:35:33.784Z,12.94
2018-04-17T01:36:33.831Z,12.94
2018-04-17T01:37:33.760Z,13
2018-04-17T01:38:33.763Z,13
2018-04-17T01:39:33.750Z,13
2018-04-17T01:40:33.756Z,12.94
2018-04-17T01:41:33.787Z,12.94
2018-04-17T01:42:33.982Z,13
2018-04-17T01:43:33.754Z,12.94
2018-04-17T01:44:33.754Z,13
2018-04-17T01:45:33.744Z,12.94
2018-04-17T01:46:33.740Z,13
2018-04-17T01:47:33.760Z,13
2018-04-17T01:48:33.731Z,12.94
2018-04-17T01:49:33.761Z,13
2018-04-17T01:50:33.744Z,13
2018-04-17T01:51:33.723Z,12.94
2018-04-17T01:52:33.735Z,13
2018-04-17T01:53:33.802Z,12.94
2018-04-17T01:54:33.751Z,12.94
2018-04-17T01:55:33.865Z,12.88
2018-04-17T01:56:33.712Z,12.88
2018-04-17T01:57:33.741Z,12.88
2018-04-17T01:58:33.725Z,12.81
2018-04-17T01:59:33.739Z,12.75
2018-04-17T02:00:33.785Z,12.75
2018-04-17T02:01:33.712Z,12.75
2018-04-17T02:02:33.734Z,12.69
2018-04-17T02:03:33.703Z,12.69
2018-04-17T02:04:33.709Z,12.63
2018-04-17T02:05:33.774Z,12.63
2018-04-17T02:06:33.881Z,12.63
2018-04-17T02:07:33.775Z,12.56
2018-04-17T02:08:33.721Z,12.56
2018-04-17T02:09:33.719Z,12.56
2018-04-17T02:10:33.772Z,12.56
2018-04-17T02:11:33.702Z,12.56
2018-04-17T02:12:33.816Z,12.5
2018-04-17T02:13:33.757Z,12.5
2018-04-17T02:14:33.705Z,12.5
2018-04-17T02:15:33.845Z,12.5
2018-04-17T02:16:33.709Z,12.5
2018-04-17T02:17:33.684Z,12.44
2018-04-17T02:18:33.729Z,12.44
2018-04-17T02:19:33.753Z,12.37
2018-04-17T02:20:33.857Z,12.37
2018-04-17T02:21:33.799Z,12.37
2018-04-17T02:22:33.688Z,12.31
2018-04-17T02:23:33.730Z,12.31
2018-04-17T02:24:33.712Z,12.31
2018-04-17T02:25:33.726Z,12.31
2018-04-17T02:26:33.668Z,12.31
2018-04-17T02:27:33.759Z,12.31
2018-04-17T02:28:33.683Z,12.31
2018-04-17T02:29:33.670Z,12.31
2018-04-17T02:30:33.722Z,12.31
2018-04-17T02:31:33.713Z,12.31
2018-04-17T02:32:33.691Z,12.31
2018-04-17T02:33:33.698Z,12.31
2018-04-17T02:34:33.683Z,12.31
2018-04-17T02:35:33.715Z,12.31
2018-04-17T02:36:33.667Z,12.31
2018-04-17T02:37:33.661Z,12.31
2018-04-17T02:38:33.693Z,12.37
2018-04-17T02:39:33.707Z,12.37
2018-04-17T02:40:33.713Z,12.37
2018-04-17T02:41:33.656Z,12.37
2018-04-17T02:42:33.646Z,12.37
2018-04-17T02:43:33.673Z,12.37
2018-04-17T02:44:33.687Z,12.37
2018-04-17T02:45:33.699Z,12.31
2018-04-17T02:46:33.673Z,12.31
2018-04-17T02:47:33.998Z,12.31
2018-04-17T02:48:33.674Z,12.25
2018-04-17T02:49:33.652Z,12.31
2018-04-17T02:50:33.640Z,12.31
2018-04-17T02:51:33.654Z,12.25
2018-04-17T02:52:33.651Z,12.25
2018-04-17T02:53:33.724Z,12.25
2018-04-17T02:54:33.655Z,12.25
2018-04-17T02:55:33.665Z,12.19
2018-04-17T02:56:33.674Z,12.19
2018-04-17T02:57:33.627Z,12.13
2018-04-17T02:58:33.640Z,12.19
2018-04-17T02:59:33.735Z,12.13
2018-04-17T03:00:33.676Z,12.13
2018-04-17T03:01:33.638Z,12.06
2018-04-17T03:02:33.651Z,12
2018-04-17T03:03:33.644Z,12.06
2018-04-17T03:04:33.619Z,12
2018-04-17T03:05:33.688Z,12
2018-04-17T03:06:33.632Z,12
2018-04-17T03:07:33.768Z,12
2018-04-17T03:08:33.626Z,12
2018-04-17T03:09:33.791Z,12
2018-04-17T03:10:33.647Z,11.94
2018-04-17T03:11:33.606Z,12
2018-04-17T03:12:33.614Z,12
2018-04-17T03:13:33.661Z,12
2018-04-17T03:14:33.622Z,11.94
2018-04-17T03:15:33.613Z,12
2018-04-17T03:16:33.605Z,11.94
2018-04-17T03:17:33.608Z,11.94
2018-04-17T03:18:33.604Z,11.94
2018-04-17T03:19:33.655Z,11.94
2018-04-17T03:20:33.617Z,12
2018-04-17T03:21:33.766Z,11.94
2018-04-17T03:22:33.618Z,12
2018-04-17T03:23:33.610Z,11.94
2018-04-17T03:24:33.636Z,11.94
2018-04-17T03:25:33.638Z,11.94
2018-04-17T03:26:33.594Z,11.94
2018-04-17T03:27:33.615Z,11.94
2018-04-17T03:28:33.607Z,11.94
2018-04-17T03:29:33.599Z,11.94
2018-04-17T03:30:33.663Z,11.94
2018-04-17T03:31:33.608Z,11.88
2018-04-17T03:32:33.630Z,11.88
2018-04-17T03:33:33.615Z,11.88
2018-04-17T03:34:33.590Z,11.88
2018-04-17T03:35:33.602Z,11.81
2018-04-17T03:36:33.613Z,11.81
2018-04-17T03:37:33.595Z,11.81
2018-04-17T03:38:33.592Z,11.75
2018-04-17T03:39:33.829Z,11.81
2018-04-17T03:40:33.601Z,11.81
2018-04-17T03:41:33.650Z,11.75
2018-04-17T03:42:33.592Z,11.75
2018-04-17T03:43:33.589Z,11.81
2018-04-17T03:44:33.590Z,11.81
2018-04-17T03:45:33.822Z,11.75
2018-04-17T03:46:33.614Z,11.81
2018-04-17T03:47:33.574Z,11.75
2018-04-17T03:48:33.569Z,11.75
2018-04-17T03:49:33.601Z,11.75
2018-04-17T03:50:33.613Z,11.69
2018-04-17T03:51:33.575Z,11.69
2018-04-17T03:52:33.568Z,11.63
2018-04-17T03:53:33.593Z,11.63
2018-04-17T03:54:33.545Z,11.63
2018-04-17T03:55:33.819Z,11.63
2018-04-17T03:56:33.593Z,11.63
2018-04-17T03:57:33.560Z,11.63
2018-04-17T03:58:33.565Z,11.69
2018-04-17T03:59:33.565Z,11.63
2018-04-17T04:00:33.591Z,11.69
2018-04-17T04:01:33.578Z,11.69
2018-04-17T04:02:33.603Z,11.63
2018-04-17T04:03:33.553Z,11.69
2018-04-17T04:04:33.549Z,11.63
2018-04-17T04:05:33.848Z,11.63
2018-04-17T04:06:33.571Z,11.63
2018-04-17T04:07:33.537Z,11.69
2018-04-17T04:08:33.514Z,11.69
2018-04-17T04:09:33.562Z,11.69
2018-04-17T04:10:33.917Z,11.63
2018-04-17T04:11:33.540Z,11.63
2018-04-17T04:12:33.538Z,11.63
2018-04-17T04:13:33.543Z,11.63
2018-04-17T04:14:33.627Z,11.63
2018-04-17T04:15:33.838Z,11.63
2018-04-17T04:16:33.575Z,11.63
2018-04-17T04:17:33.549Z,11.63
2018-04-17T04:18:33.539Z,11.56
2018-04-17T04:19:33.525Z,11.56
2018-04-17T04:20:33.538Z,11.56
2018-04-17T04:21:33.572Z,11.56
2018-04-17T04:22:33.536Z,11.5
2018-04-17T04:23:33.536Z,11.44
2018-04-17T04:24:33.534Z,11.5
2018-04-17T04:25:33.534Z,11.44
2018-04-17T04:26:33.544Z,11.44
2018-04-17T04:27:34.051Z,11.38
2018-04-17T04:28:33.553Z,11.38
2018-04-17T04:29:33.543Z,11.38
2018-04-17T04:30:33.567Z,11.38
2018-04-17T04:31:33.508Z,11.38
2018-04-17T04:32:33.561Z,11.38
2018-04-17T04:33:33.514Z,11.38
2018-04-17T04:34:33.563Z,11.38
2018-04-17T04:35:33.645Z,11.31
2018-04-17T04:36:33.534Z,11.31
2018-04-17T04:37:33.504Z,11.25
2018-04-17T04:38:33.508Z,11.31
2018-04-17T04:39:33.644Z,11.31
2018-04-17T04:40:33.537Z,11.25
2018-04-17T04:41:33.481Z,11.31
2018-04-17T04:42:33.549Z,11.31
2018-04-17T04:43:33.500Z,11.31
2018-04-17T04:44:33.491Z,11.38
2018-04-17T04:45:33.546Z,11.38
2018-04-17T04:46:33.498Z,11.38
2018-04-17T04:47:33.506Z,11.38
2018-04-17T04:48:33.477Z,11.44
2018-04-17T04:49:33.478Z,11.44
2018-04-17T04:50:33.479Z,11.44
2018-04-17T04:51:33.490Z,11.44
2018-04-17T04:52:33.478Z,11.44
2018-04-17T04:53:33.515Z,11.38
2018-04-17T04:54:33.463Z,11.38
2018-04-17T04:55:33.491Z,11.44
2018-04-17T04:56:33.483Z,11.44
2018-04-17T04:57:33.483Z,11.44
2018-04-17T04:58:33.477Z,11.44
2018-04-17T04:59:33.462Z,11.44
2018-04-17T05:00:33.531Z,11.44
2018-04-17T05:01:33.471Z,11.5
2018-04-17T05:02:33.462Z,11.5
2018-04-17T05:03:33.485Z,11.44
2018-04-17T05:04:33.470Z,11.5
2018-04-17T05:05:33.464Z,11.5
2018-04-17T05:06:33.569Z,11.44
2018-04-17T05:07:33.486Z,11.44
2018-04-17T05:08:33.456Z,11.44
2018-04-17T05:09:33.462Z,11.5
2018-04-17T05:10:33.444Z,11.5
2018-04-17T05:11:33.438Z,11.44
2018-04-17T05:12:33.553Z,11.56
2018-04-17T05:13:33.482Z,11.56
2018-04-17T05:14:33.472Z,11.56
2018-04-17T05:15:33.445Z,11.5
2018-04-17T05:16:33.479Z,11.5
2018-04-17T05:17:33.468Z,11.56
2018-04-17T05:18:33.906Z,11.56
2018-04-17T05:19:33.458Z,11.56
2018-04-17T05:20:33.506Z,11.56
2018-04-17T05:21:33.566Z,11.63
2018-04-17T05:22:33.462Z,11.56
2018-04-17T05:23:33.469Z,11.56
2018-04-17T05:24:33.534Z,11.63
2018-04-17T05:25:33.437Z,11.63
2018-04-17T05:26:33.488Z,11.69
2018-04-17T05:27:33.436Z,11.63
2018-04-17T05:28:33.433Z,11.75
2018-04-17T05:29:33.459Z,11.69
2018-04-17T05:30:33.416Z,11.69
2018-04-17T05:31:33.439Z,11.75
2018-04-17T05:32:33.421Z,11.75
2018-04-17T05:33:33.590Z,11.75
2018-04-17T05:34:33.411Z,11.75
2018-04-17T05:35:33.435Z,11.75
2018-04-17T05:36:33.588Z,11.75
2018-04-17T05:37:33.448Z,11.75
2018-04-17T05:38:33.404Z,11.81
2018-04-17T05:39:33.433Z,11.75
2018-04-17T05:40:33.422Z,11.81
2018-04-17T05:41:33.405Z,11.81
2018-04-17T05:42:33.425Z,11.88
2018-04-17T05:43:33.405Z,11.88
2018-04-17T05:44:33.446Z,11.88
2018-04-17T05:45:33.453Z,11.94
2018-04-17T05:46:33.421Z,11.94
2018-04-17T05:47:33.421Z,11.94
2018-04-17T05:48:33.430Z,11.94
2018-04-17T05:49:33.387Z,11.94
2018-04-17T05:50:33.399Z,11.94
2018-04-17T05:51:33.432Z,11.94
2018-04-17T05:52:33.445Z,12
2018-04-17T05:53:33.399Z,11.94
2018-04-17T05:54:33.516Z,12
2018-04-17T05:55:33.396Z,12
2018-04-17T05:56:33.413Z,12
2018-04-17T05:57:33.410Z,12
2018-04-17T05:58:33.500Z,12
2018-04-17T05:59:33.415Z,12
2018-04-17T06:00:33.380Z,12.06
2018-04-17T06:01:33.370Z,12.06
2018-04-17T06:02:33.412Z,12.06
2018-04-17T06:03:33.415Z,12.06
2018-04-17T06:04:33.495Z,12.13
2018-04-17T06:05:33.386Z,12.13
2018-04-17T06:06:33.515Z,12.13
2018-04-17T06:07:33.402Z,12.19
2018-04-17T06:08:33.355Z,12.19
2018-04-17T06:09:33.343Z,12.19
2018-04-17T06:10:33.375Z,12.25
2018-04-17T06:11:33.386Z,12.25
2018-04-17T06:12:33.380Z,12.25
2018-04-17T06:13:33.358Z,12.25
2018-04-17T06:14:33.351Z,12.25
2018-04-17T06:15:33.325Z,12.31
2018-04-17T06:16:33.381Z,12.37
2018-04-17T06:17:33.365Z,12.31
2018-04-17T06:18:33.372Z,12.31
2018-04-17T06:19:33.378Z,12.37
2018-04-17T06:20:33.485Z,12.37
2018-04-17T06:21:33.352Z,12.37
2018-04-17T06:22:33.460Z,12.37
2018-04-17T06:23:33.447Z,12.44
2018-04-17T06:24:33.356Z,12.5
2018-04-17T06:25:33.379Z,12.44
2018-04-17T06:26:33.400Z,12.5
2018-04-17T06:27:33.336Z,12.44
2018-04-17T06:28:33.401Z,12.5
2018-04-17T06:29:33.372Z,12.5
2018-04-17T06:30:33.352Z,12.56
2018-04-17T06:31:33.376Z,12.56
2018-04-17T06:32:33.346Z,12.56
2018-04-17T06:33:33.372Z,12.63
2018-04-17T06:34:33.428Z,12.63
2018-04-17T06:35:33.340Z,12.63
2018-04-17T06:36:33.325Z,12.69
2018-04-17T06:37:33.349Z,12.69
2018-04-17T06:38:33.351Z,12.75
2018-04-17T06:39:33.312Z,12.75
2018-04-17T06:40:33.347Z,12.75
2018-04-17T06:41:33.327Z,12.75
2018-04-17T06:42:33.380Z,12.75
2018-04-17T06:43:33.325Z,12.75
2018-04-17T06:44:33.415Z,12.75
2018-04-17T06:45:33.318Z,12.81
2018-04-17T06:46:33.307Z,12.81
2018-04-17T06:47:34.074Z,12.81
2018-04-17T06:48:33.326Z,12.88
2018-04-17T06:49:33.344Z,12.88
2018-04-17T06:50:33.328Z,12.94
2018-04-17T06:51:33.294Z,12.94
2018-04-17T06:52:33.649Z,13
2018-04-17T06:53:33.367Z,13
2018-04-17T06:54:34.261Z,13
2018-04-17T06:55:33.322Z,13.06
2018-04-17T06:56:33.332Z,13.06
2018-04-17T06:57:33.338Z,13.13
2018-04-17T06:58:33.337Z,13.13
2018-04-17T06:59:33.296Z,13.19
2018-04-17T07:00:33.262Z,13.19
2018-04-17T07:01:33.273Z,13.25
2018-04-17T07:02:33.252Z,13.31
2018-04-17T07:03:33.421Z,13.31
2018-04-17T07:04:33.275Z,13.38
2018-04-17T07:05:33.335Z,13.44
2018-04-17T07:06:33.286Z,13.44
2018-04-17T07:07:33.248Z,13.5
2018-04-17T07:08:33.283Z,13.44
2018-04-17T07:09:33.286Z,13.56
2018-04-17T07:10:33.247Z,13.5
2018-04-17T07:11:33.292Z,13.5
2018-04-17T07:12:33.274Z,13.56
2018-04-17T07:13:33.285Z,13.56
2018-04-17T07:14:33.349Z,13.62
2018-04-17T07:15:33.261Z,13.62
2018-04-17T07:16:33.273Z,13.69
2018-04-17T07:17:33.308Z,13.69
2018-04-17T07:18:33.320Z,13.75
2018-04-17T07:19:33.293Z,13.75
2018-04-17T07:20:33.270Z,13.81
2018-04-17T07:21:33.261Z,13.81
2018-04-17T07:22:33.279Z,13.88
2018-04-17T07:23:33.287Z,13.88
2018-04-17T07:24:33.244Z,13.94
2018-04-17T07:25:33.263Z,13.94
2018-04-17T07:26:33.244Z,14
2018-04-17T07:27:33.236Z,14
2018-04-17T07:28:33.267Z,14
2018-04-17T07:29:33.238Z,14.06
2018-04-17T07:30:33.257Z,14.13
2018-04-17T07:31:33.205Z,14.13
2018-04-17T07:32:33.271Z,14.19
2018-04-17T07:33:33.252Z,14.19
2018-04-17T07:34:33.242Z,14.25
2018-04-17T07:35:33.257Z,14.25
2018-04-17T07:36:33.204Z,14.31
2018-04-17T07:37:33.226Z,14.31
2018-04-17T07:38:33.265Z,14.38
2018-04-17T07:39:33.208Z,14.44
2018-04-17T07:40:34.063Z,14.44
2018-04-17T07:41:33.235Z,14.44
2018-04-17T07:42:33.215Z,14.5
2018-04-17T07:43:33.281Z,14.5
2018-04-17T07:44:33.212Z,14.5
2018-04-17T07:45:33.194Z,14.5
2018-04-17T07:46:33.215Z,14.5
2018-04-17T07:47:33.238Z,14.56
2018-04-17T07:48:33.201Z,14.56
2018-04-17T07:49:33.177Z,14.63
2018-04-17T07:50:33.176Z,14.69
2018-04-17T07:51:33.191Z,14.69
2018-04-17T07:52:33.222Z,14.69
2018-04-17T07:53:33.258Z,14.75
2018-04-17T07:54:33.368Z,14.81
2018-04-17T07:55:33.258Z,14.81
2018-04-17T07:56:33.208Z,14.87
2018-04-17T07:57:33.215Z,14.94
2018-04-17T07:58:33.195Z,15
2018-04-17T07:59:33.230Z,15.06
2018-04-17T08:00:33.193Z,15.06
2018-04-17T08:01:33.226Z,15.06
2018-04-17T08:02:33.218Z,15.06
2018-04-17T08:03:33.160Z,15.06
2018-04-17T08:04:33.216Z,15.06
2018-04-17T08:05:33.164Z,15.06
2018-04-17T08:06:33.204Z,15.13
2018-04-17T08:07:33.183Z,15.19
2018-04-17T08:08:33.240Z,15.25
2018-04-17T08:09:33.329Z,15.25
2018-04-17T08:10:33.189Z,15.25
2018-04-17T08:11:33.171Z,15.38
2018-04-17T08:12:33.170Z,15.38
2018-04-17T08:13:33.211Z,15.44
2018-04-17T08:14:33.186Z,15.44
2018-04-17T08:15:33.239Z,15.5
2018-04-17T08:16:33.233Z,15.56
2018-04-17T08:17:33.462Z,15.56
2018-04-17T08:18:33.198Z,15.5
2018-04-17T08:19:33.264Z,15.56
2018-04-17T08:20:33.207Z,15.63
2018-04-17T08:21:33.173Z,15.69
2018-04-17T08:22:33.142Z,15.69
2018-04-17T08:23:33.605Z,15.75
2018-04-17T08:24:33.206Z,15.81
2018-04-17T08:25:33.139Z,15.88
2018-04-17T08:26:33.175Z,15.88
2018-04-17T08:27:33.144Z,15.88
2018-04-17T08:28:33.651Z,15.94
2018-04-17T08:29:33.165Z,15.94
2018-04-17T08:30:33.132Z,16
2018-04-17T08:31:33.147Z,16
2018-04-17T08:32:33.140Z,16
2018-04-17T08:33:33.178Z,16.12
2018-04-17T08:34:34.409Z,16.19
2018-04-17T08:35:33.132Z,16.12
2018-04-17T08:36:33.122Z,16.25
2018-04-17T08:37:33.269Z,16.25
2018-04-17T08:38:33.215Z,16.31
2018-04-17T08:39:33.133Z,16.31
2018-04-17T08:40:33.146Z,16.37
2018-04-17T08:41:33.148Z,16.37
2018-04-17T08:42:33.139Z,16.44
2018-04-17T08:43:33.149Z,16.44
2018-04-17T08:44:33.136Z,16.44
2018-04-17T08:45:33.129Z,16.44
2018-04-17T08:46:33.178Z,16.5
2018-04-17T08:47:33.121Z,16.5
2018-04-17T08:48:33.102Z,16.56
2018-04-17T08:49:33.113Z,16.56
2018-04-17T08:50:33.084Z,16.5
2018-04-17T08:51:33.125Z,16.62
2018-04-17T08:52:33.340Z,16.56
2018-04-17T08:53:33.102Z,16.62
2018-04-17T08:54:33.356Z,16.62
2018-04-17T08:55:33.105Z,16.75
2018-04-17T08:56:33.136Z,16.81
2018-04-17T08:57:33.108Z,16.87
2018-04-17T08:58:33.121Z,16.87
2018-04-17T08:59:33.441Z,16.94
2018-04-17T09:00:33.126Z,17
2018-04-17T09:01:33.099Z,17
2018-04-17T09:02:33.213Z,17
2018-04-17T09:03:33.166Z,17.06
2018-04-17T09:04:33.376Z,17.06
2018-04-17T09:05:33.077Z,17.19
2018-04-17T09:06:33.152Z,17.19
2018-04-17T09:07:33.063Z,17.25
2018-04-17T09:08:33.094Z,17.25
2018-04-17T09:09:33.092Z,17.31
2018-04-17T09:10:33.175Z,17.31
2018-04-17T09:11:33.070Z,17.37
2018-04-17T09:12:33.114Z,17.37
2018-04-17T09:13:33.125Z,17.44
2018-04-17T09:14:33.094Z,17.5
2018-04-17T09:15:33.065Z,17.5
2018-04-17T09:16:33.069Z,17.5
2018-04-17T09:17:33.066Z,17.56
2018-04-17T09:18:33.148Z,17.56
2018-04-17T09:19:33.088Z,17.62
2018-04-17T09:20:33.081Z,17.62
2018-04-17T09:21:33.040Z,17.69
2018-04-17T09:22:33.115Z,17.69
2018-04-17T09:23:33.223Z,17.75
2018-04-17T09:24:33.071Z,17.75
2018-04-17T09:25:33.065Z,17.69
2018-04-17T09:26:33.069Z,17.69
2018-04-17T09:27:33.476Z,17.62
2018-04-17T09:28:33.089Z,17.56
2018-04-17T09:29:33.047Z,17.5
2018-04-17T09:30:33.055Z,17.56
2018-04-17T09:31:33.176Z,17.56
2018-04-17T09:32:33.069Z,17.62
2018-04-17T09:33:33.125Z,17.62
2018-04-17T09:34:33.614Z,17.69
2018-04-17T09:35:33.066Z,17.69
2018-04-17T09:36:33.033Z,17.75
2018-04-17T09:37:33.110Z,17.75
2018-04-17T09:38:33.079Z,17.75
2018-04-17T09:39:33.069Z,17.75
2018-04-17T09:40:33.067Z,17.81
2018-04-17T09:41:33.107Z,17.75
2018-04-17T09:42:33.334Z,17.81
2018-04-17T09:43:33.128Z,17.87
2018-04-17T09:44:33.106Z,17.87
2018-04-17T09:45:33.057Z,17.87
2018-04-17T09:46:33.122Z,17.87
2018-04-17T09:47:33.014Z,17.87
2018-04-17T09:48:33.030Z,17.94
2018-04-17T09:49:33.032Z,17.87
2018-04-17T09:50:33.276Z,17.94
2018-04-17T09:51:33.014Z,17.87
2018-04-17T09:52:33.011Z,17.87
2018-04-17T09:53:33.053Z,17.94
2018-04-17T09:54:33.157Z,17.94
2018-04-17T09:55:33.033Z,17.94
2018-04-17T09:56:33.078Z,17.94
2018-04-17T09:57:33.433Z,17.94
2018-04-17T09:58:33.076Z,18.06
2018-04-17T09:59:33.000Z,18.06
2018-04-17T10:00:33.028Z,18.06
2018-04-17T10:01:33.024Z,18.19
2018-04-17T10:02:33.001Z,18.19
2018-04-17T10:03:33.255Z,18.19
2018-04-17T10:04:33.011Z,18.25
2018-04-17T10:05:33.015Z,18.31
2018-04-17T10:06:33.017Z,18.31
2018-04-17T10:07:33.084Z,18.31
2018-04-17T10:08:33.058Z,18.37
2018-04-17T10:09:32.992Z,18.37
2018-04-17T10:10:33.018Z,18.44
2018-04-17T10:11:32.983Z,18.5
2018-04-17T10:12:32.982Z,18.56
2018-04-17T10:13:32.989Z,18.62
2018-04-17T10:14:33.032Z,18.69
2018-04-17T10:15:33.095Z,18.75
2018-04-17T10:16:33.139Z,18.87
2018-04-17T10:17:32.999Z,18.94
2018-04-17T10:18:32.985Z,19
2018-04-17T10:19:33.044Z,19
2018-04-17T10:20:33.086Z,19.06
2018-04-17T10:21:33.142Z,19.12
2018-04-17T10:22:33.424Z,19.19
2018-04-17T10:23:32.969Z,19.25
2018-04-17T10:24:33.006Z,19.37
2018-04-17T10:25:32.980Z,19.37
2018-04-17T10:26:32.994Z,19.5
2018-04-17T10:27:33.015Z,19.56
2018-04-17T10:28:32.956Z,19.62
2018-04-17T10:29:32.960Z,19.69
2018-04-17T10:30:32.983Z,19.75
2018-04-17T10:31:33.012Z,19.81
2018-04-17T10:32:32.987Z,19.94
2018-04-17T10:33:32.990Z,19.94
2018-04-17T10:34:33.027Z,20
2018-04-17T10:35:32.980Z,20
2018-04-17T10:36:32.995Z,19.94
2018-04-17T10:37:32.966Z,20
2018-04-17T10:38:32.985Z,20
2018-04-17T10:39:33.017Z,20
2018-04-17T10:40:32.962Z,20.06
2018-04-17T10:41:32.981Z,20.06
2018-04-17T10:42:32.943Z,20.12
2018-04-17T10:43:33.034Z,20.19
2018-04-17T10:44:32.971Z,20.19
2018-04-17T10:45:32.980Z,20.25
2018-04-17T10:46:33.360Z,20.25
2018-04-17T10:47:33.102Z,20.31
2018-04-17T10:48:32.973Z,20.37
2018-04-17T10:49:33.011Z,20.37
2018-04-17T10:50:32.970Z,20.37
2018-04-17T10:51:32.983Z,20.44
2018-04-17T10:52:32.955Z,20.44
2018-04-17T10:53:32.982Z,20.5
2018-04-17T10:54:32.946Z,20.5
2018-04-17T10:55:32.978Z,20.5
2018-04-17T10:56:33.018Z,20.5
2018-04-17T10:57:32.954Z,20.5
2018-04-17T10:58:32.908Z,20.56
2018-04-17T10:59:32.959Z,20.62
2018-04-17T11:00:33.046Z,20.62
2018-04-17T11:01:32.990Z,20.69
2018-04-17T11:02:32.935Z,20.69
2018-04-17T11:03:32.963Z,20.62
2018-04-17T11:04:32.899Z,20.56
2018-04-17T11:05:32.933Z,20.5
2018-04-17T11:06:33.234Z,20.5
2018-04-17T11:07:32.984Z,20.44
2018-04-17T11:08:32.926Z,20.44
2018-04-17T11:09:32.910Z,20.5
2018-04-17T11:10:32.924Z,20.5
2018-04-17T11:11:32.966Z,20.5
2018-04-17T11:12:33.061Z,20.5
2018-04-17T11:13:32.958Z,20.56
2018-04-17T11:14:32.949Z,20.62
2018-04-17T11:15:32.897Z,20.69
2018-04-17T11:16:32.980Z,20.75
2018-04-17T11:17:32.915Z,20.75
2018-04-17T11:18:33.040Z,20.75
2018-04-17T11:19:32.911Z,20.81
2018-04-17T11:20:32.952Z,20.88
2018-04-17T11:21:33.248Z,20.88
2018-04-17T11:22:32.878Z,20.94
2018-04-17T11:23:32.887Z,20.88
2018-04-17T11:24:32.910Z,20.88
2018-04-17T11:25:32.936Z,20.94
2018-04-17T11:26:32.905Z,21
2018-04-17T11:27:32.885Z,21
2018-04-17T11:28:32.966Z,20.94
2018-04-17T11:29:32.890Z,20.94
2018-04-17T11:30:32.921Z,21.06
2018-04-17T11:31:32.945Z,21.06
2018-04-17T11:32:32.919Z,21.06
2018-04-17T11:33:32.920Z,21.12
2018-04-17T11:34:33.315Z,21.19
2018-04-17T11:35:32.971Z,21.19
2018-04-17T11:36:32.890Z,21.25
2018-04-17T11:37:32.899Z,21.25
2018-04-17T11:38:32.931Z,21.25
2018-04-17T11:39:32.961Z,21.25
2018-04-17T11:40:32.901Z,21.25
2018-04-17T11:41:32.905Z,21.31
2018-04-17T11:42:33.017Z,21.37
2018-04-17T11:43:32.928Z,21.37
2018-04-17T11:44:32.894Z,21.44
2018-04-17T11:45:32.862Z,21.44
2018-04-17T11:46:32.920Z,21.44
2018-04-17T11:47:32.890Z,21.5
2018-04-17T11:48:33.017Z,21.5
2018-04-17T11:49:32.916Z,21.5
2018-04-17T11:50:32.941Z,21.56
2018-04-17T11:51:32.883Z,21.56
2018-04-17T11:52:32.878Z,21.62
2018-04-17T11:53:32.948Z,21.62
2018-04-17T11:54:32.895Z,21.62
2018-04-17T11:55:32.856Z,21.62
2018-04-17T11:56:33.057Z,21.62
2018-04-17T11:57:33.208Z,21.62
2018-04-17T11:58:32.896Z,21.69
2018-04-17T11:59:32.857Z,21.69
2018-04-17T12:00:32.879Z,21.69
2018-04-17T12:01:32.902Z,21.81
2018-04-17T12:02:32.835Z,21.81
2018-04-17T12:03:32.860Z,21.87
2018-04-17T12:04:32.905Z,21.87
2018-04-17T12:05:32.917Z,21.87
2018-04-17T12:06:32.846Z,21.87
2018-04-17T12:07:32.844Z,21.87
2018-04-17T12:08:32.845Z,21.87
2018-04-17T12:09:32.851Z,21.87
2018-04-17T12:10:32.845Z,21.87
2018-04-17T12:11:32.870Z,21.94
2018-04-17T12:12:32.885Z,22
2018-04-17T12:13:32.828Z,22
2018-04-17T12:14:32.831Z,22
2018-04-17T12:15:32.852Z,22
2018-04-17T12:16:32.870Z,21.94
2018-04-17T12:17:32.888Z,22
2018-04-17T12:18:32.855Z,22
2018-04-17T12:19:32.856Z,22.13
2018-04-17T12:20:32.832Z,22.13
2018-04-17T12:21:32.832Z,22.19
2018-04-17T12:22:32.822Z,22.19
2018-04-17T12:23:32.897Z,22.25
2018-04-17T12:24:32.824Z,22.25
2018-04-17T12:25:32.810Z,22.31
2018-04-17T12:26:32.857Z,22.31
2018-04-17T12:27:32.959Z,22.31
2018-04-17T12:28:32.826Z,22.25
2018-04-17T12:29:32.796Z,22.13
2018-04-17T12:30:32.835Z,22.19
2018-04-17T12:31:32.836Z,22.25
2018-04-17T12:32:32.979Z,22.25
2018-04-17T12:33:32.792Z,22.31
2018-04-17T12:34:33.128Z,22.37
2018-04-17T12:35:32.812Z,22.44
2018-04-17T12:36:32.787Z,22.5
2018-04-17T12:37:32.822Z,22.56
2018-04-17T12:38:32.822Z,22.5
2018-04-17T12:39:32.779Z,22.62
2018-04-17T12:40:32.862Z,22.62
2018-04-17T12:41:32.810Z,22.69
2018-04-17T12:42:32.828Z,22.69
2018-04-17T12:43:32.809Z,22.75
2018-04-17T12:44:32.924Z,22.75
2018-04-17T12:45:32.777Z,22.81
2018-04-17T12:46:32.775Z,22.81
2018-04-17T12:47:32.880Z,22.87
2018-04-17T12:48:32.797Z,22.87
2018-04-17T12:49:32.771Z,22.87
2018-04-17T12:50:32.767Z,22.87
2018-04-17T12:51:32.841Z,22.87
2018-04-17T12:52:32.808Z,22.87
2018-04-17T12:53:32.762Z,22.87
2018-04-17T12:54:32.767Z,22.94
2018-04-17T12:55:32.781Z,22.94
2018-04-17T12:56:32.770Z,23
2018-04-17T12:57:32.814Z,23
2018-04-17T12:58:32.855Z,23
2018-04-17T12:59:32.788Z,23.06
2018-04-17T13:00:32.767Z,23
2018-04-17T13:01:32.856Z,23.06